createdAt,value
2019-06-07T00:01:08.442Z,95290.60
2019-06-07T00:03:39.287Z,95285.63
2019-06-07T00:06:16.428Z,95293.70
2019-06-07T00:08:44.170Z,95297.33
2019-06-07T00:11:18.595Z,95299.31
2019-06-07T00:13:48.491Z,95303.97
2019-06-07T00:16:23.203Z,95305.91
2019-06-07T00:18:53.520Z,95300.50
2019-06-07T00:22:12.280Z,95302.57
2019-06-07T00:23:58.494Z,95288.61
2019-06-07T00:26:29.954Z,95296.19
2019-06-07T00:29:01.695Z,95292.11
2019-06-07T00:31:33.368Z,95294.80
2019-06-07T00:34:04.796Z,95299.34
2019-06-07T00:36:37.466Z,95295.06
2019-06-07T00:39:10.667Z,95290.74
2019-06-07T00:41:42.393Z,95282.54
2019-06-07T00:44:15.142Z,95286.38
2019-06-07T00:46:48.350Z,95290.14
2019-06-07T00:49:36.186Z,95293.11
2019-06-07T00:51:53.835Z,95287.51
2019-06-07T00:54:25.745Z,95282.39
2019-06-07T00:56:57.237Z,95284.61
2019-06-07T00:59:29.887Z,95285.27
2019-06-07T01:02:01.478Z,95285.23
2019-06-07T01:04:33.034Z,95284.45
2019-06-07T01:07:04.826Z,95291.43
2019-06-07T01:09:36.222Z,95290.53
2019-06-07T01:12:07.897Z,95293.19
2019-06-07T01:14:39.824Z,95294.19
2019-06-07T01:17:39.931Z,95296.39
2019-06-07T01:19:58.174Z,95298.97
2019-06-07T01:22:30.119Z,95295.33
2019-06-07T01:25:01.906Z,95291.88
2019-06-07T01:27:34.785Z,95286.48
2019-06-07T01:30:08.491Z,95285.85
2019-06-07T01:32:40.147Z,95284.58
2019-06-07T01:35:11.808Z,95286.05
2019-06-07T01:37:43.599Z,95286.57
2019-06-07T01:40:17.159Z,95286.27
2019-06-07T01:42:48.952Z,95286.25
2019-06-07T01:45:21.323Z,95292.77
2019-06-07T01:47:53.188Z,95298.51
2019-06-07T01:50:27.096Z,95294.60
2019-06-07T01:52:58.226Z,95294.28
2019-06-07T01:55:32.791Z,95288.78
2019-06-07T01:58:03.584Z,95298.13
2019-06-07T02:00:35.235Z,95301.44
2019-06-07T02:03:07.221Z,95301.76
2019-06-07T02:05:38.889Z,95305.06
2019-06-07T02:08:10.434Z,95316.38
2019-06-07T02:10:42.099Z,95311.13
2019-06-07T02:13:13.804Z,95316.62
2019-06-07T02:15:45.221Z,95304.96
2019-06-07T02:18:17.118Z,95304.58
2019-06-07T02:20:48.743Z,95304.45
2019-06-07T02:23:20.745Z,95305.32
2019-06-07T02:25:52.893Z,95309.76
2019-06-07T02:28:42.234Z,95313.39
2019-06-07T02:31:00.254Z,95314.34
2019-06-07T02:33:35.073Z,95312.84
2019-06-07T02:36:04.184Z,95315.33
2019-06-07T02:38:37.794Z,95318.14
2019-06-07T02:41:09.421Z,95319.95
2019-06-07T02:43:40.909Z,95320.77
2019-06-07T02:46:32.520Z,95323.58
2019-06-07T02:48:57.191Z,95338.70
2019-06-07T02:51:37.797Z,95337.89
2019-06-07T02:54:01.693Z,95345.94
2019-06-07T02:56:45.053Z,95352.18
2019-06-07T02:59:06.849Z,95355.66
2019-06-07T03:01:42.038Z,95355.47
2019-06-07T03:04:12.423Z,95360.19
2019-06-07T03:06:44.350Z,95364.27
2019-06-07T03:09:17.502Z,95363.45
2019-06-07T03:11:51.179Z,95361.63
2019-06-07T03:14:25.999Z,95362.57
2019-06-07T03:17:08.554Z,95363.16
2019-06-07T03:19:44.792Z,95377.09
2019-06-07T03:22:16.449Z,95376.58
2019-06-07T03:24:49.401Z,95389.95
2019-06-07T03:27:34.978Z,95385.11
2019-06-07T03:29:54.486Z,95394.41
2019-06-07T03:32:29.216Z,95396.84
2019-06-07T03:34:59.608Z,95393.52
2019-06-07T03:37:37.624Z,95393.17
2019-06-07T03:40:04.845Z,95396.47
2019-06-07T03:42:39.748Z,95398.47
2019-06-07T03:45:09.944Z,95399.10
2019-06-07T03:47:42.962Z,95396.81
2019-06-07T03:50:16.261Z,95396.67
2019-06-07T03:52:48.862Z,95396.95
2019-06-07T03:55:20.711Z,95396.08
2019-06-07T04:00:25.721Z,95398.02
2019-06-07T04:02:57.366Z,95399.81
2019-06-07T04:05:32.125Z,95401.26
2019-06-07T04:08:02.131Z,95400.06
2019-06-07T04:10:55.937Z,95406.58
2019-06-07T04:13:06.869Z,95405.91
2019-06-07T04:15:41.342Z,95406.39
2019-06-07T04:18:12.020Z,95407.42
2019-06-07T04:20:43.535Z,95412.05
2019-06-07T04:23:27.820Z,95414.09
2019-06-07T04:25:48.191Z,95412.95
2019-06-07T04:28:19.509Z,95421.29
2019-06-07T04:30:51.317Z,95425.08
2019-06-07T04:33:22.883Z,95415.02
2019-06-07T04:35:56.881Z,95421.78
2019-06-07T04:38:32.685Z,95427.86
2019-06-07T04:41:04.330Z,95429.23
2019-06-07T04:43:40.576Z,95433.45
2019-06-07T04:46:12.721Z,95438.03
2019-06-07T04:48:45.889Z,95433.95
2019-06-07T04:51:20.057Z,95439.98
2019-06-07T04:53:51.555Z,95443.19
2019-06-07T04:56:23.060Z,95452.66
2019-06-07T04:58:55.624Z,95451.37
2019-06-07T05:01:30.412Z,95451.80
2019-06-07T05:04:00.582Z,95443.16
2019-06-07T05:06:34.881Z,95446.07
2019-06-07T05:09:06.747Z,95452.27
2019-06-07T05:11:39.430Z,95453.92
2019-06-07T05:14:11.657Z,95455.66
2019-06-07T05:16:44.378Z,95459.50
2019-06-07T05:19:16.461Z,95456.00
2019-06-07T05:22:02.480Z,95458.64
2019-06-07T05:24:21.337Z,95455.08
2019-06-07T05:26:53.033Z,95454.60
2019-06-07T05:29:24.845Z,95458.45
2019-06-07T05:31:56.613Z,95459.47
2019-06-07T05:34:28.259Z,95463.70
2019-06-07T05:37:11.593Z,95463.11
2019-06-07T05:39:36.861Z,95462.17
2019-06-07T05:42:08.043Z,95463.42
2019-06-07T05:44:43.647Z,95460.54
2019-06-07T05:47:13.537Z,95453.86
2019-06-07T05:49:47.109Z,95462.34
2019-06-07T05:52:18.826Z,95458.05
2019-06-07T05:54:50.308Z,95458.27
2019-06-07T05:57:21.745Z,95463.12
2019-06-07T05:59:52.737Z,95460.36
2019-06-07T06:02:25.119Z,95455.67
2019-06-07T06:04:56.819Z,95454.83
2019-06-07T06:07:28.318Z,95454.16
2019-06-07T06:09:59.934Z,95469.59
2019-06-07T06:12:35.411Z,95464.52
2019-06-07T06:15:05.331Z,95467.61
2019-06-07T06:17:40.935Z,95468.89
2019-06-07T06:20:10.195Z,95463.10
2019-06-07T06:22:47.278Z,95464.81
2019-06-07T06:25:31.752Z,95461.86
2019-06-07T06:28:10.025Z,95451.22
2019-06-07T06:30:24.225Z,95449.11
2019-06-07T06:32:58.400Z,95447.75
2019-06-07T06:35:29.406Z,95447.00
2019-06-07T06:38:01.182Z,95447.66
2019-06-07T06:40:33.128Z,95449.34
2019-06-07T06:43:05.345Z,95447.62
2019-06-07T06:45:38.052Z,95445.21
2019-06-07T06:48:09.712Z,95448.10
2019-06-07T06:50:41.128Z,95443.31
2019-06-07T06:53:12.630Z,95444.41
2019-06-07T06:55:47.947Z,95440.48
2019-06-07T06:58:17.935Z,95437.90
2019-06-07T07:01:04.980Z,95438.33
2019-06-07T07:03:56.655Z,95441.44
2019-06-07T07:06:24.218Z,95435.91
2019-06-07T07:08:30.596Z,95433.08
2019-06-07T07:11:02.519Z,95438.88
2019-06-07T07:13:33.664Z,95433.34
2019-06-07T07:16:05.390Z,95434.70
2019-06-07T07:18:36.860Z,95383.64
2019-06-07T07:21:08.058Z,95435.41
2019-06-07T07:23:39.470Z,95432.88
2019-06-07T07:26:10.875Z,95434.58
2019-06-07T07:28:43.047Z,95428.41
2019-06-07T07:31:14.837Z,95433.36
2019-06-07T07:36:38.182Z,95435.13
2019-06-07T07:39:00.649Z,95433.83
2019-06-07T07:41:26.391Z,95440.38
2019-06-07T07:44:06.016Z,95439.14
2019-06-07T07:46:31.286Z,95436.30
2019-06-07T07:49:02.562Z,95432.52
2019-06-07T07:51:34.275Z,95440.63
2019-06-07T07:54:10.835Z,95434.79
2019-06-07T07:56:38.721Z,95440.70
2019-06-07T07:59:10.283Z,95430.69
2019-06-07T08:01:41.737Z,95430.69
2019-06-07T08:04:13.454Z,95440.70
2019-06-07T08:06:44.713Z,95440.70
2019-06-07T08:09:16.422Z,95445.25
2019-06-07T08:11:49.974Z,95440.97
2019-06-07T08:14:21.566Z,95444.48
2019-06-07T08:16:54.474Z,95445.03
2019-06-07T08:19:26.312Z,95445.70
2019-06-07T08:22:00.074Z,95447.45
2019-06-07T08:24:30.803Z,95441.22
2019-06-07T08:27:24.639Z,95446.53
2019-06-07T08:29:44.816Z,95451.40
2019-06-07T08:32:08.520Z,95455.91
2019-06-07T08:34:40.392Z,95449.05
2019-06-07T08:37:12.034Z,95452.00
2019-06-07T08:39:43.309Z,95455.25
2019-06-07T08:42:21.405Z,95455.16
2019-06-07T08:44:49.203Z,95460.64
2019-06-07T08:47:21.413Z,95453.23
2019-06-07T08:49:56.783Z,95457.29
2019-06-07T08:52:26.271Z,95459.55
2019-06-07T08:55:01.691Z,95456.84
2019-06-07T08:57:30.995Z,95456.87
2019-06-07T09:00:07.120Z,95454.41
2019-06-07T09:02:35.732Z,95450.39
2019-06-07T09:05:12.245Z,95453.38
2019-06-07T09:07:40.849Z,95458.42
2019-06-07T09:10:14.619Z,95447.98
2019-06-07T09:12:45.953Z,95445.05
2019-06-07T09:15:23.315Z,95438.76
2019-06-07T09:20:36.939Z,95436.89
2019-06-07T09:23:07.134Z,95442.20
2019-06-07T09:25:52.462Z,95440.99
2019-06-07T09:28:17.479Z,95437.20
2019-06-07T09:30:41.436Z,95426.43
2019-06-07T09:33:14.188Z,95436.59
2019-06-07T09:35:46.616Z,95434.25
2019-06-07T09:38:25.685Z,95435.47
2019-06-07T09:40:50.973Z,95437.71
2019-06-07T09:45:58.859Z,95432.60
2019-06-07T09:51:09.679Z,95426.87
2019-06-07T09:53:36.834Z,95423.38
2019-06-07T09:56:11.706Z,95423.30
2019-06-07T09:58:51.892Z,95417.45
2019-06-07T10:01:14.242Z,95423.11
2019-06-07T10:03:45.574Z,95419.73
2019-06-07T10:06:16.887Z,95411.47
2019-06-07T10:11:21.257Z,95415.36
2019-06-07T10:13:52.452Z,95420.36
2019-06-07T10:16:23.960Z,95415.18
2019-06-07T10:18:55.406Z,95415.89
2019-06-07T10:21:26.912Z,95408.67
2019-06-07T10:23:59.274Z,95416.15
2019-06-07T10:26:30.962Z,95412.65
2019-06-07T10:29:04.891Z,95416.56
2019-06-07T10:31:35.558Z,95410.25
2019-06-07T10:34:06.918Z,95414.30
2019-06-07T10:36:38.553Z,95411.66
2019-06-07T10:39:11.342Z,95409.73
2019-06-07T10:41:43.054Z,95407.21
2019-06-07T10:44:14.612Z,95408.76
2019-06-07T10:46:46.302Z,95398.13
2019-06-07T10:49:17.836Z,95398.90
2019-06-07T10:51:49.282Z,95396.10
2019-06-07T10:54:29.491Z,95395.36
2019-06-07T10:56:54.363Z,95388.48
2019-06-07T10:59:26.152Z,95393.14
2019-06-07T11:01:57.679Z,95389.99
2019-06-07T11:04:29.038Z,95387.00
2019-06-07T11:07:00.553Z,95386.42
2019-06-07T11:09:32.195Z,95392.17
2019-06-07T11:12:04.333Z,95388.91
2019-06-07T11:14:35.567Z,95382.73
2019-06-07T11:17:07.390Z,95379.88
2019-06-07T11:19:39.611Z,95382.55
2019-06-07T11:22:12.115Z,95381.33
2019-06-07T11:24:44.115Z,95387.91
2019-06-07T11:27:16.279Z,95380.16
2019-06-07T11:29:47.845Z,95372.14
2019-06-07T11:32:19.174Z,95375.40
2019-06-07T11:34:50.068Z,95380.55
2019-06-07T11:37:21.285Z,95375.94
2019-06-07T11:39:52.404Z,95373.92
2019-06-07T11:42:23.771Z,95369.34
2019-06-07T11:44:57.005Z,95372.56
2019-06-07T11:47:27.860Z,95367.74
2019-06-07T11:49:58.975Z,95375.27
2019-06-07T11:52:30.152Z,95359.66
2019-06-07T11:55:01.347Z,95361.28
2019-06-07T11:57:33.409Z,95351.83
2019-06-07T12:00:05.521Z,95345.36
2019-06-07T12:02:36.866Z,95345.92
2019-06-07T12:05:11.277Z,95337.88
2019-06-07T12:07:41.546Z,95342.43
2019-06-07T12:10:16.590Z,95342.15
2019-06-07T12:12:46.783Z,95329.20
2019-06-07T12:15:19.348Z,95321.16
2019-06-07T12:17:50.931Z,95323.02
2019-06-07T12:20:22.324Z,95320.91
2019-06-07T12:22:53.696Z,95318.17
2019-06-07T12:25:25.322Z,95320.05
2019-06-07T12:27:56.696Z,95314.37
2019-06-07T12:30:28.284Z,95310.16
2019-06-07T12:32:59.498Z,95314.42
2019-06-07T12:35:30.597Z,95308.25
2019-06-07T12:38:01.978Z,95310.67
2019-06-07T12:40:33.056Z,95307.70
2019-06-07T12:43:04.341Z,95308.25
2019-06-07T12:45:44.441Z,95295.30
2019-06-07T12:48:08.483Z,95301.36
2019-06-07T12:50:42.908Z,95303.75
2019-06-07T12:53:13.533Z,95301.41
2019-06-07T12:55:44.736Z,95299.28
2019-06-07T12:58:16.051Z,95295.50
2019-06-07T13:00:47.055Z,95302.23
2019-06-07T13:03:18.439Z,95297.66
2019-06-07T13:05:49.529Z,95298.54
2019-06-07T13:08:22.059Z,95295.86
2019-06-07T13:10:53.165Z,95289.41
2019-06-07T13:13:24.643Z,95292.89
2019-06-07T13:15:55.620Z,95294.78
2019-06-07T13:18:26.706Z,95285.38
2019-06-07T13:20:57.576Z,95282.69
2019-06-07T13:23:29.111Z,95281.61
2019-06-07T13:26:00.171Z,95282.14
2019-06-07T13:28:31.772Z,95281.86
2019-06-07T13:31:04.275Z,95280.52
2019-06-07T13:33:38.641Z,95275.13
2019-06-07T13:36:08.169Z,95277.56
2019-06-07T13:38:39.501Z,95269.22
2019-06-07T13:41:10.743Z,95275.15
2019-06-07T13:43:41.913Z,95273.00
2019-06-07T13:46:13.209Z,95267.61
2019-06-07T13:48:44.601Z,95267.34
2019-06-07T13:51:15.430Z,95266.80
2019-06-07T13:53:46.407Z,95265.42
2019-06-07T13:56:17.837Z,95261.94
2019-06-07T13:58:49.180Z,95265.16
2019-06-07T14:01:20.361Z,95268.92
2019-06-07T14:03:51.815Z,95263.80
2019-06-07T14:06:23.462Z,95260.84
2019-06-07T14:08:54.984Z,95260.84
2019-06-07T14:11:25.899Z,95257.91
2019-06-07T14:13:57.154Z,95257.66
2019-06-07T14:16:28.457Z,95258.73
2019-06-07T14:19:00.081Z,95261.69
2019-06-07T14:21:31.583Z,95258.70
2019-06-07T14:24:02.567Z,95258.41
2019-06-07T14:26:33.839Z,95253.83
2019-06-07T14:29:05.207Z,95260.30
2019-06-07T14:31:36.282Z,95259.19
2019-06-07T14:34:07.472Z,95260.50
2019-06-07T14:36:38.463Z,95259.16
2019-06-07T14:39:09.570Z,95249.70
2019-06-07T14:41:40.831Z,95251.31
2019-06-07T14:44:11.927Z,95245.41
2019-06-07T14:46:43.238Z,95241.32
2019-06-07T14:49:14.284Z,95247.04
2019-06-07T14:51:45.564Z,95249.95
2019-06-07T14:54:16.695Z,95255.36
2019-06-07T14:56:47.847Z,95250.30
2019-06-07T14:59:18.876Z,95247.61
2019-06-07T15:01:50.175Z,95247.11
2019-06-07T15:04:21.263Z,95256.05
2019-06-07T15:06:52.347Z,95263.31
2019-06-07T15:09:23.429Z,95259.54
2019-06-07T15:11:54.471Z,95266.28
2019-06-07T15:14:25.432Z,95269.23
2019-06-07T15:16:57.471Z,95266.27
2019-06-07T15:19:28.977Z,95266.25
2019-06-07T15:21:59.895Z,95264.91
2019-06-07T15:24:35.375Z,95267.89
2019-06-07T15:27:04.741Z,95270.58
2019-06-07T15:29:36.179Z,95271.92
2019-06-07T15:32:07.403Z,95267.88
2019-06-07T15:34:38.488Z,95266.27
2019-06-07T15:37:09.660Z,95269.23
2019-06-07T15:39:40.853Z,95269.75
2019-06-07T15:42:11.856Z,95270.30
2019-06-07T15:44:46.575Z,95269.75
2019-06-07T15:47:17.788Z,95262.48
2019-06-07T15:49:49.064Z,95265.99
2019-06-07T15:52:21.155Z,95263.25
2019-06-07T15:54:52.324Z,95264.34
2019-06-07T15:57:23.618Z,95267.56
2019-06-07T15:59:54.494Z,95269.44
2019-06-07T16:02:25.495Z,95267.23
2019-06-07T16:04:56.415Z,95269.13
2019-06-07T16:07:27.496Z,95266.17
2019-06-07T16:09:58.630Z,95265.07
2019-06-07T16:12:29.969Z,95267.72
2019-06-07T16:15:01.124Z,95264.12
2019-06-07T16:17:32.982Z,95269.09
2019-06-07T16:20:04.749Z,95270.65
2019-06-07T16:22:36.022Z,95263.58
2019-06-07T16:25:08.359Z,95271.02
2019-06-07T16:27:40.650Z,95269.34
2019-06-07T16:30:13.722Z,95273.81
2019-06-07T16:32:46.279Z,95278.61
2019-06-07T16:35:17.495Z,95279.41
2019-06-07T16:37:51.575Z,95283.97
2019-06-07T16:40:21.935Z,95279.09
2019-06-07T16:42:52.919Z,95288.94
2019-06-07T16:45:24.623Z,95287.09
2019-06-07T16:47:55.917Z,95291.93
2019-06-07T16:50:27.140Z,95293.27
2019-06-07T16:52:58.310Z,95294.30
2019-06-07T16:55:29.656Z,95295.02
2019-06-07T16:58:01.195Z,95289.38
2019-06-07T17:00:32.396Z,95292.88
2019-06-07T17:03:04.013Z,95299.00
2019-06-07T17:05:35.649Z,95297.59
2019-06-07T17:08:07.013Z,95292.99
2019-06-07T17:10:38.299Z,95294.06
2019-06-07T17:13:09.497Z,95291.07
2019-06-07T17:15:40.774Z,95299.63
2019-06-07T17:18:12.696Z,95303.88
2019-06-07T17:20:45.301Z,95300.07
2019-06-07T17:23:16.502Z,95301.66
2019-06-07T17:25:47.610Z,95306.21
2019-06-07T17:28:18.471Z,95303.95
2019-06-07T17:30:50.317Z,95302.62
2019-06-07T17:33:21.300Z,95313.22
2019-06-07T17:35:52.391Z,95310.53
2019-06-07T17:38:23.444Z,95297.60
2019-06-07T17:40:54.634Z,95306.97
2019-06-07T17:43:25.687Z,95305.64
2019-06-07T17:45:56.796Z,95309.91
2019-06-07T17:48:27.627Z,95312.33
2019-06-07T17:50:58.657Z,95301.81
2019-06-07T17:53:30.584Z,95304.43
2019-06-07T17:56:01.665Z,95319.22
2019-06-07T17:58:32.557Z,95317.80
2019-06-07T18:01:03.561Z,95322.31
2019-06-07T18:03:34.467Z,95330.92
2019-06-07T18:06:05.809Z,95330.92
2019-06-07T18:08:36.866Z,95329.80
2019-06-07T18:11:07.889Z,95326.22
2019-06-07T18:13:38.731Z,95330.09
2019-06-07T18:16:09.630Z,95331.32
2019-06-07T18:18:40.539Z,95331.25
2019-06-07T18:21:11.453Z,95339.22
2019-06-07T18:23:42.348Z,95339.66
2019-06-07T18:26:13.490Z,95339.05
2019-06-07T18:28:44.329Z,95343.17
2019-06-07T18:31:15.413Z,95352.95
2019-06-07T18:33:46.855Z,95345.04
2019-06-07T18:36:17.798Z,95351.33
2019-06-07T18:38:49.020Z,95349.84
2019-06-07T18:41:19.988Z,95352.09
2019-06-07T18:43:51.246Z,95355.73
2019-06-07T18:46:22.512Z,95359.48
2019-06-07T18:48:54.785Z,95371.39
2019-06-07T18:51:26.300Z,95372.77
2019-06-07T18:53:57.831Z,95372.84
2019-06-07T18:56:28.860Z,95397.48
2019-06-07T18:58:59.800Z,95373.95
2019-06-07T19:01:30.733Z,95390.31
2019-06-07T19:04:01.769Z,95396.72
2019-06-07T19:06:32.844Z,95396.78
2019-06-07T19:09:05.095Z,95396.78
2019-06-07T19:11:36.222Z,95404.15
2019-06-07T19:14:07.184Z,95402.22
2019-06-07T19:16:38.203Z,95406.30
2019-06-07T19:19:09.434Z,95417.15
2019-06-07T19:21:40.437Z,95415.89
2019-06-07T19:24:11.392Z,95426.33
2019-06-07T19:26:42.637Z,95422.28
2019-06-07T19:29:14.123Z,95418.31
2019-06-07T19:31:46.223Z,95428.55
2019-06-07T19:34:17.837Z,95422.22
2019-06-07T19:36:49.267Z,95427.03
2019-06-07T19:39:20.862Z,95429.12
2019-06-07T19:41:52.480Z,95432.97
2019-06-07T19:44:23.940Z,95434.25
2019-06-07T19:46:56.372Z,95431.55
2019-06-07T19:49:27.722Z,95436.48
2019-06-07T19:51:59.101Z,95435.21
2019-06-07T19:54:30.434Z,95433.95
2019-06-07T19:57:01.919Z,95440.58
2019-06-07T19:59:34.379Z,95432.44
2019-06-07T20:02:05.887Z,95429.52
2019-06-07T20:04:37.289Z,95434.60
2019-06-07T20:07:08.804Z,95437.58
2019-06-07T20:09:40.013Z,95439.19
2019-06-07T20:12:11.652Z,95443.17
2019-06-07T20:14:43.027Z,95442.56
2019-06-07T20:17:14.432Z,95437.30
2019-06-07T20:19:45.925Z,95445.04
2019-06-07T20:22:17.740Z,95447.03
2019-06-07T20:24:49.026Z,95451.02
2019-06-07T20:27:20.343Z,95446.81
2019-06-07T20:29:51.732Z,95450.20
2019-06-07T20:32:23.023Z,95446.88
2019-06-07T20:34:54.194Z,95448.39
2019-06-07T20:37:25.783Z,95457.49
2019-06-07T20:39:57.234Z,95457.34
2019-06-07T20:42:28.668Z,95462.47
2019-06-07T20:45:00.148Z,95464.84
2019-06-07T20:47:31.808Z,95458.13
2019-06-07T20:50:04.123Z,95460.32
2019-06-07T20:52:35.978Z,95454.72
2019-06-07T20:55:09.422Z,95461.28
2019-06-07T20:57:41.538Z,95460.10
2019-06-07T21:00:21.024Z,95461.95
2019-06-07T21:02:47.005Z,95473.67
2019-06-07T21:05:18.480Z,95471.47
2019-06-07T21:07:49.874Z,95472.20
2019-06-07T21:10:21.379Z,95473.23
2019-06-07T21:12:52.656Z,95473.84
2019-06-07T21:15:23.977Z,95476.34
2019-06-07T21:17:55.182Z,95479.63
2019-06-07T21:20:26.323Z,95476.68
2019-06-07T21:22:57.655Z,95478.02
2019-06-07T21:25:28.795Z,95479.05
2019-06-07T21:28:00.942Z,95485.05
2019-06-07T21:30:32.116Z,95487.33
2019-06-07T21:33:03.690Z,95478.66
2019-06-07T21:35:35.233Z,95481.33
2019-06-07T21:38:07.857Z,95482.83
2019-06-07T21:40:39.400Z,95483.45
2019-06-07T21:43:10.761Z,95477.52
2019-06-07T21:45:42.122Z,95483.42
2019-06-07T21:48:14.410Z,95481.59
2019-06-07T21:50:46.983Z,95475.36
2019-06-07T21:53:18.541Z,95482.36
2019-06-07T21:55:50.260Z,95474.02
2019-06-07T21:58:22.051Z,95474.53
2019-06-07T22:01:16.926Z,95477.83
2019-06-07T22:03:49.444Z,95491.48
2019-06-07T22:06:22.033Z,95482.69
2019-06-07T22:08:53.633Z,95475.89
2019-06-07T22:11:25.395Z,95486.06
2019-06-07T22:13:57.304Z,95481.37
2019-06-07T22:16:29.570Z,95486.84
2019-06-07T22:19:01.305Z,95490.19
2019-06-07T22:21:32.951Z,95481.14
2019-06-07T22:24:04.859Z,95485.33
2019-06-07T22:26:36.344Z,95480.03
2019-06-07T22:29:08.235Z,95479.42
2019-06-07T22:31:39.538Z,95482.25
2019-06-07T22:34:11.104Z,95481.21
2019-06-07T22:36:42.650Z,95491.00
2019-06-07T22:39:14.078Z,95486.50
2019-06-07T22:41:45.817Z,95490.67
2019-06-07T22:44:17.341Z,95491.05
2019-06-07T22:46:48.832Z,95491.43
2019-06-07T22:49:20.550Z,95498.14
2019-06-07T22:52:05.523Z,95496.63
2019-06-07T22:54:25.214Z,95497.13
2019-06-07T22:57:01.009Z,95497.41
2019-06-07T22:59:32.555Z,95490.47
2019-06-07T23:02:03.968Z,95487.21
2019-06-07T23:04:35.279Z,95483.21
2019-06-07T23:07:06.777Z,95482.91
2019-06-07T23:09:38.310Z,95482.88
2019-06-07T23:12:09.602Z,95488.70
2019-06-07T23:14:40.908Z,95489.86
2019-06-07T23:17:13.865Z,95486.09
2019-06-07T23:19:46.188Z,95481.89
2019-06-07T23:22:17.954Z,95485.86
2019-06-07T23:24:49.465Z,95482.64
2019-06-07T23:27:20.922Z,95473.55
2019-06-07T23:29:52.326Z,95472.64
2019-06-07T23:32:23.692Z,95473.89
2019-06-07T23:34:55.261Z,95475.08
2019-06-07T23:37:26.595Z,95468.98
2019-06-07T23:39:58.077Z,95469.99
2019-06-07T23:42:29.281Z,95471.08
2019-06-07T23:45:00.769Z,95468.70
2019-06-07T23:47:32.132Z,95471.86
2019-06-07T23:50:03.642Z,95479.62
2019-06-07T23:52:35.263Z,95479.16
2019-06-07T23:55:08.047Z,95475.33
2019-06-07T23:57:39.598Z,95475.15
